Time;durP1;ratioP1;P1;durP2;ratioP2;P2;SDS_P1;SDS_P2;PMS_P1;PMS_P2;Temp;Humidity;BMP_temperature;BMP_pressure;BME280_temperature;BME280_humidity;BME280_pressure;Samples;Min_cycle;Max_cycle;Signal;HPM_P1;HPM_P2
2021/12/21 00:00:48;;;;;;;25.55;11.50;;;;;;;-2.87;100.00;102799.75;5094140;28;20490;-83
2021/12/21 00:03:14;;;;;;;22.83;11.32;;;;;;;-2.88;100.00;102805.66;5093703;28;20559;-83
2021/12/21 00:05:40;;;;;;;26.08;12.27;;;;;;;-2.92;100.00;102796.00;5094103;28;20025;-83
2021/12/21 00:08:12;;;;;;;30.23;11.45;;;;;;;-2.91;100.00;102797.78;5093787;28;20103;-83
2021/12/21 00:10:42;;;;;;;31.80;11.95;;;;;;;-2.92;100.00;102795.13;5109419;28;20036;-83
2021/12/21 00:13:20;;;;;;;28.05;12.35;;;;;;;-2.97;100.00;102789.75;5110118;27;20459;-82
2021/12/21 00:15:58;;;;;;;28.92;12.15;;;;;;;-2.97;100.00;102794.84;5103374;28;20073;-83
2021/12/21 00:18:34;;;;;;;23.63;11.15;;;;;;;-3.01;100.00;102789.44;5094616;28;20039;-82
2021/12/21 00:23:35;;;;;;;26.73;11.82;;;;;;;-3.02;100.00;102790.22;5093772;28;20067;-82
2021/12/21 00:26:10;;;;;;;31.30;12.55;;;;;;;-3.06;100.00;102784.06;5093095;28;20024;-83
2021/12/21 00:29:10;;;;;;;28.75;12.32;;;;;;;-3.06;100.00;102777.28;5104962;28;20124;-83
2021/12/21 00:31:32;;;;;;;34.05;11.75;;;;;;;-3.08;100.00;102778.84;5092540;28;20035;-82
2021/12/21 00:33:58;;;;;;;32.03;12.98;;;;;;;-3.15;100.00;102770.72;5094028;28;20085;-83
2021/12/21 00:36:26;;;;;;;29.67;13.02;;;;;;;-3.13;100.00;102784.47;5096143;28;20479;-83
2021/12/21 00:38:54;;;;;;;34.78;12.57;;;;;;;-3.15;100.00;102776.69;5092334;28;20494;-82
2021/12/21 00:41:20;;;;;;;26.55;11.32;;;;;;;-3.20;100.00;102778.09;5110175;28;20034;-83
2021/12/21 00:43:45;;;;;;;30.17;13.65;;;;;;;-3.20;100.00;102778.09;5113503;28;20019;-83
2021/12/21 00:46:11;;;;;;;31.73;12.35;;;;;;;-3.20;100.00;102767.88;5102371;28;20031;-83
2021/12/21 00:48:37;;;;;;;27.98;13.63;;;;;;;-3.21;100.00;102766.09;5111040;28;20457;-83
2021/12/21 00:51:07;;;;;;;36.08;12.23;;;;;;;-3.20;100.00;102772.13;5112582;28;20026;-82
2021/12/21 00:53:36;;;;;;;33.28;13.75;;;;;;;-3.24;100.00;102762.47;5112987;28;20036;-83
2021/12/21 00:56:02;;;;;;;29.85;12.18;;;;;;;-3.28;100.00;102758.84;5109912;28;20024;-82
2021/12/21 00:58:27;;;;;;;32.95;13.10;;;;;;;-3.28;100.00;102769.06;5093042;28;20024;-83
2021/12/21 01:00:52;;;;;;;30.25;12.80;;;;;;;-3.34;100.00;102758.44;5092368;28;20020;-82
2021/12/21 01:03:19;;;;;;;26.50;12.55;;;;;;;-3.33;100.00;102760.25;5093266;28;20062;-82
2021/12/21 01:08:20;;;;;;;23.38;11.85;;;;;;;-3.43;100.00;102765.53;5112935;28;20055;-82
2021/12/21 01:16:42;;;;;;;28.58;12.25;;;;;;;-3.50;100.00;102765.91;5092178;28;20036;-82
2021/12/21 01:19:16;;;;;;;28.70;11.82;;;;;;;-3.57;100.00;102759.53;5092975;28;20399;-82
2021/12/21 01:27:23;;;;;;;25.38;12.23;;;;;;;-3.64;100.00;102777.78;5101882;28;20039;-82
2021/12/21 01:32:21;;;;;;;33.10;12.93;;;;;;;-3.72;100.00;102759.44;5092909;28;20053;-82
2021/12/21 01:50:35;;;;;;;33.88;12.23;;;;;;;-3.70;100.00;102745.09;5090615;28;20059;-82
2021/12/21 01:53:00;;;;;;;30.30;12.43;;;;;;;-3.68;100.00;102751.19;5092194;28;20024;-82
2021/12/21 01:55:26;;;;;;;29.75;13.10;;;;;;;-3.70;100.00;102749.31;5095255;28;20023;-82
2021/12/21 01:57:51;;;;;;;25.83;12.48;;;;;;;-3.75;100.00;102738.84;5098452;28;20066;-82
2021/12/21 02:00:17;;;;;;;34.63;12.65;;;;;;;-3.77;100.00;102745.50;5092295;28;20049;-82
2021/12/21 02:02:42;;;;;;;34.70;13.70;;;;;;;-3.88;100.00;102726.97;5109756;28;20080;-82
2021/12/21 02:05:08;;;;;;;27.02;12.15;;;;;;;-3.79;100.00;102749.63;5111814;27;20036;-82
2021/12/21 02:07:33;;;;;;;33.45;13.70;;;;;;;-3.86;100.00;102739.78;5092145;28;20081;-82
2021/12/21 02:09:59;;;;;;;28.95;13.00;;;;;;;-3.88;100.00;102738.81;5094362;28;20490;-82
2021/12/21 02:12:24;;;;;;;34.17;13.38;;;;;;;-3.87;100.00;102738.03;5112437;28;20486;-82
2021/12/21 02:14:57;;;;;;;31.52;12.55;;;;;;;-3.92;100.00;102732.66;5112215;28;20023;-82
2021/12/21 02:20:40;;;;;;;34.72;13.15;;;;;;;-3.89;100.00;102730.31;5092286;28;20362;-82
2021/12/21 02:23:11;;;;;;;26.58;11.95;;;;;;;-3.92;100.00;102727.56;5092865;28;20032;-82
2021/12/21 02:25:56;;;;;;;33.88;13.00;;;;;;;-3.93;100.00;102729.97;5100072;28;20021;-82
2021/12/21 02:28:35;;;;;;;33.55;13.65;;;;;;;-3.94;100.00;102730.78;5091906;28;20074;-82
2021/12/21 02:31:00;;;;;;;28.80;13.52;;;;;;;-3.95;100.00;102727.34;5091013;28;20420;-82
2021/12/21 02:33:26;;;;;;;33.88;13.23;;;;;;;-3.94;100.00;102734.22;5091658;28;20015;-82
2021/12/21 02:35:53;;;;;;;31.08;13.65;;;;;;;-4.00;100.00;102727.03;5092622;28;20383;-82
2021/12/21 02:38:18;;;;;;;29.70;12.70;;;;;;;-3.95;100.00;102740.09;5090939;28;20028;-82
2021/12/21 02:40:45;;;;;;;31.80;14.18;;;;;;;-3.97;100.00;102728.03;5105137;28;20039;-82
2021/12/21 02:43:10;;;;;;;31.02;12.70;;;;;;;-4.09;100.00;102718.81;5112187;28;20030;-82
2021/12/21 02:45:38;;;;;;;30.75;13.48;;;;;;;-4.12;100.00;102726.25;5110436;28;20024;-82
2021/12/21 02:48:04;;;;;;;28.75;12.30;;;;;;;-4.15;100.00;102730.22;5110914;28;20031;-82
2021/12/21 02:50:30;;;;;;;28.65;13.25;;;;;;;-4.15;100.00;102725.13;5090969;28;20023;-82
2021/12/21 02:52:55;;;;;;;40.78;15.52;;;;;;;-4.13;100.00;102741.41;5090666;28;20024;-82
2021/12/21 02:55:21;;;;;;;36.58;14.02;;;;;;;-4.18;100.00;102720.75;5104988;28;20057;-82
2021/12/21 02:57:46;;;;;;;34.38;13.82;;;;;;;-4.14;100.00;102727.78;5091254;28;20468;-82
2021/12/21 03:00:12;;;;;;;35.33;14.30;;;;;;;-4.12;100.00;102725.34;5091028;28;20032;-81
2021/12/21 03:02:38;;;;;;;30.75;13.50;;;;;;;-4.18;100.00;102715.66;5095081;28;20097;-82
2021/12/21 03:05:04;;;;;;;29.77;13.38;;;;;;;-4.20;100.00;102722.28;5101367;28;20415;-82
2021/12/21 03:10:01;;;;;;;33.47;14.00;;;;;;;-4.26;100.00;102719.34;5115428;28;20024;-82
2021/12/21 03:13:50;;;;;;;32.45;14.07;;;;;;;-4.24;100.00;102720.31;5095356;28;20024;-81
2021/12/21 03:15:12;;;;;;;37.67;14.85;;;;;;;-4.25;100.00;102726.22;5104904;28;20016;-82
2021/12/21 03:17:37;;;;;;;34.35;14.27;;;;;;;-4.27;100.00;102727.75;5095325;28;20417;-82
2021/12/21 03:20:03;;;;;;;36.00;14.25;;;;;;;-4.30;100.00;102720.78;5093731;28;20028;-82
2021/12/21 03:22:28;;;;;;;29.45;14.20;;;;;;;-4.28;100.00;102713.28;5114050;28;20067;-81
2021/12/21 03:24:53;;;;;;;32.25;14.07;;;;;;;-4.29;100.00;102724.22;5115197;28;20042;-82
2021/12/21 03:27:19;;;;;;;35.25;13.38;;;;;;;-4.35;100.00;102711.06;5112642;28;20062;-82
2021/12/21 03:29:44;;;;;;;37.92;13.93;;;;;;;-4.35;100.00;102716.16;5115103;28;20027;-81
2021/12/21 03:32:09;;;;;;;31.70;13.85;;;;;;;-4.38;100.00;102710.88;5102809;28;20035;-81
2021/12/21 03:34:35;;;;;;;36.95;14.50;;;;;;;-4.39;100.00;102714.19;5098861;28;20020;-81
2021/12/21 03:37:00;;;;;;;36.83;13.65;;;;;;;-4.39;100.00;102719.28;5111185;28;20119;-81
2021/12/21 03:39:26;;;;;;;35.50;14.35;;;;;;;-4.41;100.00;102716.66;5112728;28;20094;-81
2021/12/21 03:41:56;;;;;;;36.67;13.90;;;;;;;-4.43;100.00;102707.16;5113142;28;20059;-82
2021/12/21 03:44:23;;;;;;;35.60;15.73;;;;;;;-4.42;100.00;102703.81;5114965;28;20023;-81
2021/12/21 03:46:52;;;;;;;32.72;13.82;;;;;;;-4.45;100.00;102703.59;5113678;28;20031;-81
2021/12/21 03:50:12;;;;;;;34.30;14.43;;;;;;;-4.45;100.00;102708.69;5110951;28;20030;-81
2021/12/21 03:52:08;;;;;;;31.25;13.55;;;;;;;-4.51;100.00;102710.06;5092127;28;20064;-81
2021/12/21 03:54:34;;;;;;;31.58;14.23;;;;;;;-4.57;100.00;102704.56;5096218;28;20027;-82
2021/12/21 03:57:00;;;;;;;32.22;14.50;;;;;;;-4.53;100.00;102706.50;5113961;28;20376;-81
2021/12/21 03:59:26;;;;;;;32.88;13.82;;;;;;;-4.53;100.00;102710.72;5114800;28;20149;-81
2021/12/21 04:01:52;;;;;;;37.97;13.60;;;;;;;-4.55;100.00;102702.09;5112410;28;20114;-81
2021/12/21 04:04:18;;;;;;;31.02;13.18;;;;;;;-4.54;100.00;102701.34;5113022;28;20127;-81
2021/12/21 04:06:44;;;;;;;27.58;13.80;;;;;;;-4.54;100.00;102704.75;5114478;28;20416;-81
2021/12/21 04:09:10;;;;;;;36.47;13.93;;;;;;;-4.58;100.00;102709.53;5114149;28;20027;-81
2021/12/21 04:11:35;;;;;;;34.88;13.82;;;;;;;-4.60;100.00;102703.47;5113710;28;20383;-81
2021/12/21 04:14:01;;;;;;;34.30;13.43;;;;;;;-4.60;100.00;102699.25;5113558;28;20027;-81
2021/12/21 04:16:27;;;;;;;37.80;14.05;;;;;;;-4.63;100.00;102701.59;5111737;28;20058;-81
2021/12/21 04:18:53;;;;;;;41.38;13.93;;;;;;;-4.62;100.00;102705.88;5113512;28;20030;-81
2021/12/21 04:21:18;;;;;;;39.85;15.60;;;;;;;-4.55;100.00;102712.28;5112370;28;20024;-81
2021/12/21 04:23:44;;;;;;;31.02;13.25;;;;;;;-4.59;100.00;102706.09;5113304;28;20043;-81
2021/12/21 04:26:12;;;;;;;32.75;13.05;;;;;;;-4.65;100.00;102700.59;5112721;28;20036;-81
2021/12/21 04:28:37;;;;;;;41.45;15.25;;;;;;;-4.74;100.00;102692.34;5113554;28;20507;-81
2021/12/21 04:31:04;;;;;;;30.52;13.32;;;;;;;-4.74;100.00;102700.00;5113062;28;20133;-81
2021/12/21 04:33:31;;;;;;;36.47;13.80;;;;;;;-4.75;100.00;102699.06;5114206;28;20027;-81
2021/12/21 04:35:56;;;;;;;36.95;14.52;;;;;;;-4.71;100.00;102705.25;5114061;28;20424;-81
2021/12/21 04:38:23;;;;;;;35.50;14.38;;;;;;;-4.69;100.00;102701.16;5113540;28;20023;-81
2021/12/21 04:41:17;;;;;;;34.25;15.02;;;;;;;-4.72;100.00;102694.19;5110015;28;20386;-81
2021/12/21 04:43:39;;;;;;;34.90;14.07;;;;;;;-4.76;100.00;102696.44;5112997;28;20475;-81
2021/12/21 04:46:05;;;;;;;30.52;13.32;;;;;;;-4.77;100.00;102692.16;5113383;28;20115;-81
2021/12/21 04:48:30;;;;;;;32.70;13.27;;;;;;;-4.79;100.00;102697.13;5113907;28;20019;-81
2021/12/21 04:50:56;;;;;;;35.78;14.48;;;;;;;-4.77;100.00;102694.69;5105667;28;20036;-81
2021/12/21 04:53:22;;;;;;;32.28;14.43;;;;;;;-4.77;100.00;102687.94;5093811;28;20167;-81
2021/12/21 04:55:48;;;;;;;37.90;16.90;;;;;;;-4.70;100.00;102694.31;5092567;28;20032;-81
2021/12/21 04:58:13;;;;;;;38.15;16.58;;;;;;;-4.73;100.00;102697.53;5093045;28;20036;-81
2021/12/21 05:00:39;;;;;;;31.92;13.63;;;;;;;-4.79;100.00;102698.78;5099464;28;20440;-81
2021/12/21 05:03:05;;;;;;;34.20;14.23;;;;;;;-4.88;100.00;102687.97;5113605;28;20062;-82
2021/12/21 05:05:31;;;;;;;44.45;16.00;;;;;;;-4.87;100.00;102688.09;5112595;28;20016;-81
2021/12/21 05:10:42;;;;;;;36.75;14.48;;;;;;;-4.89;100.00;102693.84;5094585;28;20028;-81
2021/12/21 05:13:07;;;;;;;45.50;15.63;;;;;;;-4.93;100.00;102699.50;5092565;28;20046;-81
2021/12/21 05:15:33;;;;;;;33.38;15.77;;;;;;;-4.89;100.00;102701.47;5092887;28;20040;-81
2021/12/21 05:17:58;;;;;;;35.20;16.58;;;;;;;-4.95;100.00;102694.28;5102458;28;20471;-81
2021/12/21 05:20:23;;;;;;;35.05;15.45;;;;;;;-4.92;100.00;102698.72;5111569;28;20020;-81
2021/12/21 05:22:48;;;;;;;36.58;15.18;;;;;;;-4.91;100.00;102703.00;5112683;28;20440;-81
2021/12/21 05:25:14;;;;;;;36.28;15.00;;;;;;;-4.91;100.00;102700.47;5113234;28;20039;-81
2021/12/21 05:27:39;;;;;;;41.90;15.43;;;;;;;-4.96;100.00;102698.50;5092920;28;20554;-80
2021/12/21 05:30:05;;;;;;;29.73;13.70;;;;;;;-4.94;100.00;102701.13;5097584;28;20148;-81
2021/12/21 05:32:30;;;;;;;30.20;14.65;;;;;;;-5.00;100.00;102693.09;5111661;28;20020;-81
2021/12/21 05:34:56;;;;;;;32.33;14.32;;;;;;;-4.99;100.00;102697.41;5112054;28;20032;-81
2021/12/21 05:37:21;;;;;;;35.88;14.70;;;;;;;-5.04;100.00;102693.66;5113040;28;20387;-81
2021/12/21 05:40:01;;;;;;;40.60;14.65;;;;;;;-5.02;100.00;102692.09;5110363;28;20132;-81
2021/12/21 05:42:27;;;;;;;33.80;13.40;;;;;;;-5.03;100.00;102705.59;5091686;28;20074;-81
2021/12/21 05:44:52;;;;;;;38.55;15.27;;;;;;;-5.05;100.00;102696.97;5102069;28;20509;-81
2021/12/21 05:47:18;;;;;;;44.55;14.82;;;;;;;-5.03;100.00;102696.31;5101772;28;20036;-81
2021/12/21 05:49:43;;;;;;;33.85;13.68;;;;;;;-5.04;100.00;102699.63;5100881;28;20110;-81
2021/12/21 05:52:09;;;;;;;37.40;15.13;;;;;;;-5.03;100.00;102705.59;5110280;28;20050;-81
2021/12/21 05:54:34;;;;;;;30.92;15.05;;;;;;;-5.07;100.00;102703.59;5111969;28;20023;-81
2021/12/21 05:57:00;;;;;;;39.28;14.70;;;;;;;-5.08;100.00;102702.72;5112458;28;20072;-81
2021/12/21 05:59:25;;;;;;;36.33;14.63;;;;;;;-5.05;100.00;102702.06;5112447;28;20019;-81
2021/12/21 06:01:51;;;;;;;35.22;14.60;;;;;;;-5.10;100.00;102694.13;5092074;28;20733;-81
2021/12/21 06:04:16;;;;;;;48.15;16.25;;;;;;;-5.09;100.00;102693.34;5102205;28;20027;-81
2021/12/21 06:06:41;;;;;;;38.08;14.18;;;;;;;-5.10;100.00;102693.22;5112005;28;20031;-81
2021/12/21 06:09:09;;;;;;;35.38;14.15;;;;;;;-5.13;100.00;102693.00;5112020;28;20031;-81
2021/12/21 06:11:41;;;;;;;31.17;13.90;;;;;;;-5.15;100.00;102689.50;5111421;28;20035;-81
2021/12/21 06:27:49;;;;;;;32.90;15.55;;;;;;;-5.27;100.00;102699.66;5091101;28;20540;-81
2021/12/21 06:30:15;;;;;;;33.05;14.55;;;;;;;-5.30;100.00;102694.38;5091114;28;20081;-81
2021/12/21 06:32:40;;;;;;;38.42;14.63;;;;;;;-5.33;100.00;102694.16;5090849;28;20059;-81
2021/12/21 06:35:07;;;;;;;38.85;15.38;;;;;;;-5.30;100.00;102696.91;5091522;28;20028;-81
2021/12/21 06:37:32;;;;;;;35.53;15.93;;;;;;;-5.31;100.00;102687.53;5090659;28;20077;-81
2021/12/21 06:39:58;;;;;;;37.95;16.23;;;;;;;-5.28;100.00;102687.75;5091806;28;20032;-81
2021/12/21 06:42:24;;;;;;;36.35;15.70;;;;;;;-5.26;100.00;102697.25;5091481;28;20050;-81
2021/12/21 06:44:54;;;;;;;34.88;14.77;;;;;;;-5.31;100.00;102690.06;5090835;28;20069;-81
2021/12/21 06:52:49;;;;;;;34.20;15.65;;;;;;;-5.37;100.00;102692.16;5090786;28;20084;-81
2021/12/21 06:55:14;;;;;;;37.33;15.85;;;;;;;-5.39;100.00;102696.28;5093515;28;20111;-81
2021/12/21 06:57:43;;;;;;;38.55;14.98;;;;;;;-5.41;100.00;102704.66;5110913;28;20177;-81
2021/12/21 07:00:15;;;;;;;35.47;14.68;;;;;;;-5.46;100.00;102703.47;5109480;28;20055;-80
2021/12/21 07:02:41;;;;;;;38.15;16.17;;;;;;;-5.52;100.00;102692.88;5109629;28;20432;-81
2021/12/21 07:05:08;;;;;;;35.90;14.85;;;;;;;-5.46;100.00;102713.63;5106341;28;20027;-81
2021/12/21 07:07:34;;;;;;;40.03;17.20;;;;;;;-5.44;100.00;102701.91;5098965;28;20087;-81
2021/12/21 07:10:02;;;;;;;40.15;16.58;;;;;;;-5.42;100.00;102707.13;5109829;28;20027;-81
2021/12/21 07:18:00;;;;;;;40.38;15.68;;;;;;;-5.39;100.00;102701.38;5110630;28;20027;-81
2021/12/21 07:18:24;;;;;;;;;;;;;;;-5.37;100.00;102713.38;5111836;28;20043;-80
2021/12/21 07:20:50;;;;;;;33.28;14.65;;;;;;;-5.39;100.00;102704.78;5108763;28;20291;-81
2021/12/21 07:23:15;;;;;;;35.28;15.60;;;;;;;-5.41;100.00;102707.22;5111593;28;20513;-81
2021/12/21 07:25:40;;;;;;;38.05;15.30;;;;;;;-5.44;100.00;102712.06;5111115;28;20106;-81
2021/12/21 07:28:06;;;;;;;37.15;15.93;;;;;;;-5.42;100.00;102713.06;5106508;28;20040;-81
2021/12/21 07:30:31;;;;;;;37.65;14.60;;;;;;;-5.41;100.00;102712.28;5091408;28;20024;-81
2021/12/21 07:32:56;;;;;;;34.78;15.70;;;;;;;-5.44;100.00;102706.09;5090474;28;20069;-80
2021/12/21 07:35:21;;;;;;;40.67;16.40;;;;;;;-5.42;100.00;102713.06;5092257;28;20115;-81
2021/12/21 07:37:47;;;;;;;43.60;18.10;;;;;;;-5.42;100.00;102714.75;5091199;28;20020;-81
2021/12/21 07:40:12;;;;;;;40.35;15.95;;;;;;;-5.47;100.00;102714.38;5090963;28;20059;-81
2021/12/21 07:42:38;;;;;;;37.78;16.05;;;;;;;-5.49;100.00;102715.97;5097651;28;20031;-81
2021/12/21 07:45:03;;;;;;;35.58;16.88;;;;;;;-5.52;100.00;102714.88;5110910;28;20047;-81
2021/12/21 07:47:29;;;;;;;42.10;18.27;;;;;;;-5.55;100.00;102712.97;5110386;28;20058;-80
2021/12/21 07:49:54;;;;;;;45.63;17.17;;;;;;;-5.52;100.00;102718.28;5094377;28;20024;-81
2021/12/21 07:52:20;;;;;;;36.97;17.08;;;;;;;-5.47;100.00;102722.03;5095832;28;20036;-81
2021/12/21 07:54:45;;;;;;;40.75;16.30;;;;;;;-5.49;100.00;102726.13;5105619;28;20032;-81
2021/12/21 07:57:11;;;;;;;45.08;16.77;;;;;;;-5.47;100.00;102726.22;5111924;28;20028;-81
2021/12/21 07:59:38;;;;;;;41.50;17.15;;;;;;;-5.47;100.00;102711.84;5104812;28;20084;-81
2021/12/21 08:02:05;;;;;;;42.65;15.85;;;;;;;-5.38;100.00;102731.09;5107132;28;20035;-81
2021/12/21 08:04:30;;;;;;;40.08;16.65;;;;;;;-5.38;100.00;102734.50;5096825;28;20058;-81
2021/12/21 08:07:00;;;;;;;39.67;16.92;;;;;;;-5.41;100.00;102721.59;5105213;28;20505;-81
2021/12/21 08:09:32;;;;;;;38.50;16.48;;;;;;;-5.39;100.00;102729.34;5098995;28;20072;-81
2021/12/21 08:12:17;;;;;;;36.75;16.30;;;;;;;-5.38;100.00;102731.09;5105142;28;20038;-81
2021/12/21 08:14:48;;;;;;;45.38;17.10;;;;;;;-5.37;100.00;102736.28;5094087;28;20035;-81
2021/12/21 08:17:14;;;;;;;36.97;16.08;;;;;;;-5.33;100.00;102729.75;5094422;28;20031;-81
2021/12/21 08:19:39;;;;;;;47.22;18.58;;;;;;;-5.32;100.00;102734.06;5098440;28;20035;-81
2021/12/21 08:22:05;;;;;;;43.65;16.50;;;;;;;-5.33;100.00;102727.19;5104261;28;20032;-81
2021/12/21 08:24:31;;;;;;;38.40;17.70;;;;;;;-5.27;100.00;102728.50;5097889;28;20418;-81
2021/12/21 08:26:59;;;;;;;43.00;16.40;;;;;;;-5.23;100.00;102733.06;5098679;28;20046;-81
2021/12/21 08:29:24;;;;;;;43.25;16.65;;;;;;;-5.21;100.00;102733.16;5102156;28;20024;-81
2021/12/21 08:31:50;;;;;;;47.97;18.60;;;;;;;-5.17;100.00;102727.50;5114014;28;20076;-81
2021/12/21 08:34:15;;;;;;;45.17;17.75;;;;;;;-5.16;100.00;102719.13;5114292;27;20070;-81
2021/12/21 08:36:41;;;;;;;51.17;18.50;;;;;;;-5.12;100.00;102723.66;5112908;27;20448;-81
2021/12/21 08:39:07;;;;;;;42.50;17.20;;;;;;;-5.09;100.00;102723.84;5100898;28;20020;-80
2021/12/21 08:41:38;;;;;;;40.47;17.05;;;;;;;-5.05;100.00;102733.47;5103909;28;20028;-81
2021/12/21 08:44:04;;;;;;;40.30;17.48;;;;;;;-5.04;100.00;102725.03;5096687;28;20106;-81
2021/12/21 08:46:29;;;;;;;39.60;18.10;;;;;;;-5.00;100.00;102727.06;5104415;28;20020;-81
2021/12/21 08:48:54;;;;;;;35.95;17.60;;;;;;;-4.97;100.00;102727.28;5095751;28;20027;-81
2021/12/21 08:51:19;;;;;;;43.92;17.90;;;;;;;-4.95;100.00;102727.34;5099506;28;20030;-81
2021/12/21 08:53:45;;;;;;;52.67;19.45;;;;;;;-4.87;100.00;102740.59;5106507;28;20019;-81
2021/12/21 08:56:11;;;;;;;45.80;19.30;;;;;;;-4.85;100.00;102736.50;5093378;28;20069;-81
2021/12/21 08:58:36;;;;;;;49.45;20.20;;;;;;;-4.81;100.00;102728.31;5108415;28;20032;-81
2021/12/21 09:01:02;;;;;;;54.13;22.75;;;;;;;-4.72;100.00;102734.91;5112757;27;20357;-81
2021/12/21 09:03:27;;;;;;;41.45;21.77;;;;;;;-4.65;100.00;102738.75;5113183;28;20192;-81
2021/12/21 09:05:54;;;;;;;54.20;23.92;;;;;;;-4.60;100.00;102741.66;5098008;28;20039;-81
2021/12/21 09:08:19;;;;;;;50.25;24.02;;;;;;;-4.53;100.00;102741.28;5107463;28;20490;-81
2021/12/21 09:10:44;;;;;;;54.17;23.38;;;;;;;-4.48;100.00;102747.56;5105880;28;20056;-81
2021/12/21 09:13:11;;;;;;;51.97;23.58;;;;;;;-4.43;100.00;102745.34;5106204;28;20023;-81
2021/12/21 09:15:37;;;;;;;50.92;22.08;;;;;;;-4.40;100.00;102741.31;5108553;28;20027;-81
2021/12/21 09:18:02;;;;;;;47.30;22.05;;;;;;;-4.37;100.00;102733.91;5109916;28;20186;-82
2021/12/21 09:20:29;;;;;;;52.83;22.85;;;;;;;-4.28;100.00;102738.75;5095654;28;20502;-82
2021/12/21 09:22:55;;;;;;;53.35;23.63;;;;;;;-4.22;100.00;102739.13;5107880;28;20092;-81
2021/12/21 09:25:21;;;;;;;55.90;25.08;;;;;;;-4.17;100.00;102740.31;5102660;28;20102;-81
2021/12/21 09:27:47;;;;;;;56.22;24.65;;;;;;;-4.07;100.00;102744.38;5100362;28;20122;-81
2021/12/21 09:30:16;;;;;;;57.35;24.63;;;;;;;-4.02;100.00;102737.94;5100372;28;20027;-82
2021/12/21 09:32:41;;;;;;;67.38;26.20;;;;;;;-3.97;100.00;102730.56;5095910;28;20027;-82
2021/12/21 09:35:07;;;;;;;51.00;24.70;;;;;;;-3.92;100.00;102740.28;5105885;28;20471;-82
2021/12/21 09:37:33;;;;;;;68.00;25.50;;;;;;;-3.86;100.00;102735.59;5112909;28;20035;-80
2021/12/21 09:40:00;;;;;;;64.88;25.90;;;;;;;-3.78;100.00;102728.44;5110790;28;20531;-81
2021/12/21 09:42:30;;;;;;;81.82;27.60;;;;;;;-3.72;100.00;102736.50;5103638;28;20035;-81
2021/12/21 09:44:58;;;;;;;57.90;26.60;;;;;;;-3.69;100.00;102731.59;5101824;28;20028;-81
2021/12/21 09:47:23;;;;;;;59.10;25.90;;;;;;;-3.65;100.00;102738.66;5100979;28;20035;-81
2021/12/21 09:49:50;;;;;;;231.35;38.40;;;;;;;-3.62;100.00;102736.31;5107100;28;20378;-81
2021/12/21 09:52:22;;;;;;;56.35;27.05;;;;;;;-3.59;100.00;102733.94;5099759;28;20032;-81
2021/12/21 09:54:48;;;;;;;162.63;30.58;;;;;;;-3.59;100.00;102728.84;5107728;28;20077;-82
2021/12/21 09:57:16;;;;;;;60.10;27.10;;;;;;;-3.56;100.00;102726.50;5099214;28;20034;-81
2021/12/21 09:59:47;;;;;;;58.53;26.10;;;;;;;-3.47;100.00;102733.84;5111500;28;20038;-81
2021/12/21 10:02:13;;;;;;;54.30;25.23;;;;;;;-3.44;100.00;102725.50;5104334;28;20031;-81
2021/12/21 10:04:57;;;;;;;56.92;26.90;;;;;;;-3.42;100.00;102734.16;5107673;28;20035;-81
2021/12/21 10:07:24;;;;;;;56.67;25.73;;;;;;;-3.39;100.00;102716.50;5103514;28;20016;-81
2021/12/21 10:09:50;;;;;;;55.00;25.30;;;;;;;-3.27;100.00;102718.91;5091011;28;20038;-81
2021/12/21 10:12:30;;;;;;;62.35;26.25;;;;;;;-3.28;100.00;102707.84;5099949;28;20467;-81
2021/12/21 10:15:15;;;;;;;49.40;24.45;;;;;;;-3.23;100.00;102714.13;5093586;28;20102;-82
2021/12/21 10:17:57;;;;;;;54.00;25.83;;;;;;;-3.16;100.00;102720.50;5093722;28;20044;-81
2021/12/21 10:20:32;;;;;;;56.15;25.45;;;;;;;-3.13;100.00;102719.00;5101552;28;20020;-81
2021/12/21 10:22:58;;;;;;;127.03;32.40;;;;;;;-3.09;100.00;102718.41;5098671;28;20037;-81
2021/12/21 10:25:25;;;;;;;58.42;27.60;;;;;;;-3.00;100.00;102718.09;5100112;28;20024;-81
2021/12/21 10:27:50;;;;;;;48.38;26.45;;;;;;;-3.02;100.00;102701.81;5101342;28;20047;-82
2021/12/21 10:30:16;;;;;;;54.58;26.15;;;;;;;-2.93;100.00;102706.59;5093057;28;20372;-82
2021/12/21 10:32:51;;;;;;;49.78;25.27;;;;;;;-2.91;100.00;102694.78;5104296;28;20038;-82
2021/12/21 10:35:16;;;;;;;41.88;24.00;;;;;;;-2.86;100.00;102708.72;5104248;28;20023;-82
2021/12/21 10:37:42;;;;;;;45.97;23.75;;;;;;;-2.84;100.00;102702.06;5093247;28;20020;-82
2021/12/21 10:40:17;;;;;;;40.63;22.30;;;;;;;-2.82;100.00;102690.25;5092782;28;20081;-82
2021/12/21 10:42:47;;;;;;;49.45;23.65;;;;;;;-2.81;100.00;102692.03;5102101;28;20028;-82
2021/12/21 10:45:16;;;;;;;43.85;23.50;;;;;;;-2.82;100.00;102690.25;5097064;28;20011;-82
2021/12/21 10:47:46;;;;;;;42.33;22.50;;;;;;;-2.74;100.00;102698.41;5111410;28;20039;-82
2021/12/21 10:50:13;;;;;;;41.00;22.35;;;;;;;-2.74;100.00;102694.16;5107257;28;20083;-82
2021/12/21 10:52:41;;;;;;;47.33;23.65;;;;;;;-2.69;100.00;102686.75;5104401;28;20040;-82
2021/12/21 10:55:07;;;;;;;49.00;23.38;;;;;;;-2.68;100.00;102681.78;5106748;28;20023;-82
2021/12/21 10:57:33;;;;;;;41.45;22.77;;;;;;;-2.63;100.00;102685.47;5109894;28;20534;-82
2021/12/21 11:00:05;;;;;;;39.78;23.02;;;;;;;-2.61;100.00;102686.44;5105420;28;20428;-82
2021/12/21 11:02:34;;;;;;;48.85;24.17;;;;;;;-2.57;100.00;102679.84;5099907;28;20076;-82
2021/12/21 11:05:04;;;;;;;43.30;23.95;;;;;;;-2.50;100.00;102689.63;5108063;28;20390;-82
2021/12/21 11:07:36;;;;;;;43.67;21.67;;;;;;;-2.47;100.00;102689.81;5105631;28;20530;-82
2021/12/21 11:10:12;;;;;;;39.10;21.73;;;;;;;-2.46;100.00;102690.69;5108219;28;20467;-82
2021/12/21 11:12:52;;;;;;;37.63;20.75;;;;;;;-2.41;100.00;102687.63;5098979;28;20056;-82
2021/12/21 11:15:33;;;;;;;35.95;20.27;;;;;;;-2.38;100.00;102679.28;5096192;28;20479;-82
2021/12/21 11:18:02;;;;;;;52.78;20.40;;;;;;;-2.33;100.00;102687.19;5107397;28;20479;-83
2021/12/21 11:20:28;;;;;;;35.08;20.98;;;;;;;-2.29;100.00;102682.38;5105981;28;20036;-82
2021/12/21 11:22:54;;;;;;;40.92;19.92;;;;;;;-2.22;100.00;102681.03;5105619;28;20382;-83
2021/12/21 11:25:21;;;;;;;38.33;20.08;;;;;;;-2.16;100.00;102676.25;5106029;28;20034;-83
2021/12/21 11:27:48;;;;;;;31.85;19.23;;;;;;;-2.15;100.00;102668.69;5107517;28;20047;-83
2021/12/21 11:30:24;;;;;;;32.15;18.05;;;;;;;-2.12;100.00;102662.91;5110602;27;20525;-83
2021/12/21 11:32:52;;;;;;;31.85;18.05;;;;;;;-2.10;100.00;102666.41;5104412;28;20399;-83
2021/12/21 11:37:56;;;;;;;30.63;18.08;;;;;;;-2.05;100.00;102649.66;5112807;28;20035;-83
2021/12/21 11:40:24;;;;;;;32.28;17.73;;;;;;;-1.96;100.00;102639.09;5111168;28;20073;-83
2021/12/21 11:42:50;;;;;;;32.47;16.30;;;;;;;-1.91;100.00;102624.88;5107931;28;20027;-83
2021/12/21 11:45:25;;;;;;;27.53;15.07;;;;;;;-1.83;100.00;102620.19;5111932;28;20127;-83
2021/12/21 11:47:55;;;;;;;30.25;15.25;;;;;;;-1.76;100.00;102628.28;5108093;28;20298;-83
2021/12/21 11:50:21;;;;;;;25.35;13.93;;;;;;;-1.67;100.00;102633.00;5115336;28;20019;-83
2021/12/21 11:52:55;;;;;;;21.60;12.73;;;;;;;-1.64;100.00;102625.50;5112751;28;20024;-83
2021/12/21 11:55:24;;;;;;;18.80;11.75;;;;;;;-1.55;100.00;102625.13;5109626;28;20369;-83
2021/12/21 11:57:57;;;;;;;21.27;12.10;;;;;;;-1.47;100.00;102618.78;5098943;28;20114;-83
2021/12/21 12:00:29;;;;;;;19.15;10.60;;;;;;;-1.43;100.00;102623.25;5094494;28;20020;-83
2021/12/21 12:03:06;;;;;;;24.92;11.43;;;;;;;-1.36;100.00;102620.22;5097585;28;20085;-81
2021/12/21 12:05:34;;;;;;;17.50;10.35;;;;;;;-1.35;100.00;102618.53;5097016;28;20043;-83
2021/12/21 12:08:03;;;;;;;19.98;10.32;;;;;;;-1.24;100.00;102617.44;5101207;28;20577;-83
2021/12/21 12:10:29;;;;;;;21.23;10.80;;;;;;;-1.22;100.00;102616.72;5103572;28;20027;-83
2021/12/21 12:12:54;;;;;;;15.27;9.68;;;;;;;-1.11;100.00;102613.81;5111671;28;20734;-83